sensor_id;sensor_type;location;lat;lon;timestamp;temperature;humidity
1175;DHT22;576;48.418;10.074;2022-10-22T00:01:12;23.70;70.90
1175;DHT22;576;48.418;10.074;2022-10-22T00:03:41;23.70;70.90
1175;DHT22;576;48.418;10.074;2022-10-22T00:06:09;23.70;71.00
1175;DHT22;576;48.418;10.074;2022-10-22T00:08:37;23.70;71.00
1175;DHT22;576;48.418;10.074;2022-10-22T00:11:12;23.70;71.00
1175;DHT22;576;48.418;10.074;2022-10-22T00:13:41;23.70;71.00
1175;DHT22;576;48.418;10.074;2022-10-22T00:16:09;23.70;70.90
1175;DHT22;576;48.418;10.074;2022-10-22T00:18:38;23.70;70.90
1175;DHT22;576;48.418;10.074;2022-10-22T00:21:06;23.70;71.00
1175;DHT22;576;48.418;10.074;2022-10-22T00:23:34;23.70;71.00
1175;DHT22;576;48.418;10.074;2022-10-22T00:26:03;23.70;71.00
1175;DHT22;576;48.418;10.074;2022-10-22T00:28:32;23.70;71.00
1175;DHT22;576;48.418;10.074;2022-10-22T00:31:01;23.70;71.00
1175;DHT22;576;48.418;10.074;2022-10-22T00:33:29;23.60;71.00
1175;DHT22;576;48.418;10.074;2022-10-22T00:35:57;23.60;71.00
1175;DHT22;576;48.418;10.074;2022-10-22T00:38:25;23.60;71.00
1175;DHT22;576;48.418;10.074;2022-10-22T00:40:54;23.60;71.00
1175;DHT22;576;48.418;10.074;2022-10-22T00:43:22;23.60;71.10
1175;DHT22;576;48.418;10.074;2022-10-22T00:45:51;23.60;71.00
1175;DHT22;576;48.418;10.074;2022-10-22T00:48:23;23.60;71.00
1175;DHT22;576;48.418;10.074;2022-10-22T00:50:55;23.60;71.00
1175;DHT22;576;48.418;10.074;2022-10-22T00:53:28;23.60;71.00
1175;DHT22;576;48.418;10.074;2022-10-22T00:55:56;23.60;71.00
1175;DHT22;576;48.418;10.074;2022-10-22T00:58:27;23.60;71.10
1175;DHT22;576;48.418;10.074;2022-10-22T01:00:57;23.60;71.10
1175;DHT22;576;48.418;10.074;2022-10-22T01:03:25;23.60;71.10
1175;DHT22;576;48.418;10.074;2022-10-22T01:05:55;23.60;71.10
1175;DHT22;576;48.418;10.074;2022-10-22T01:08:27;23.60;71.10
1175;DHT22;576;48.418;10.074;2022-10-22T01:11:05;23.60;71.10
1175;DHT22;576;48.418;10.074;2022-10-22T01:13:43;23.60;71.10
1175;DHT22;576;48.418;10.074;2022-10-22T01:16:20;23.60;71.20
1175;DHT22;576;48.418;10.074;2022-10-22T01:18:56;23.60;71.20
1175;DHT22;576;48.418;10.074;2022-10-22T01:21:31;23.60;71.20
1175;DHT22;576;48.418;10.074;2022-10-22T01:24:30;23.50;71.20
1175;DHT22;576;48.418;10.074;2022-10-22T01:27:12;23.60;71.20
1175;DHT22;576;48.418;10.074;2022-10-22T01:29:48;23.60;71.20
1175;DHT22;576;48.418;10.074;2022-10-22T01:32:19;23.60;71.20
1175;DHT22;576;48.418;10.074;2022-10-22T01:34:52;23.50;71.20
1175;DHT22;576;48.418;10.074;2022-10-22T01:37:22;23.50;71.20
1175;DHT22;576;48.418;10.074;2022-10-22T01:39:52;23.50;71.20
1175;DHT22;576;48.418;10.074;2022-10-22T01:42:21;23.50;71.10
1175;DHT22;576;48.418;10.074;2022-10-22T01:44:51;23.50;71.20
1175;DHT22;576;48.418;10.074;2022-10-22T01:47:26;23.50;71.20
1175;DHT22;576;48.418;10.074;2022-10-22T01:50:13;23.50;71.20
1175;DHT22;576;48.418;10.074;2022-10-22T01:52:53;23.50;71.10
1175;DHT22;576;48.418;10.074;2022-10-22T01:55:28;23.50;71.20
1175;DHT22;576;48.418;10.074;2022-10-22T01:58:06;23.50;71.20
1175;DHT22;576;48.418;10.074;2022-10-22T02:00:39;23.50;71.20
1175;DHT22;576;48.418;10.074;2022-10-22T02:03:14;23.50;71.20
1175;DHT22;576;48.418;10.074;2022-10-22T02:05:52;23.50;71.20
1175;DHT22;576;48.418;10.074;2022-10-22T02:08:23;23.50;71.20
1175;DHT22;576;48.418;10.074;2022-10-22T02:10:52;23.50;71.20
1175;DHT22;576;48.418;10.074;2022-10-22T02:13:24;23.50;71.20
1175;DHT22;576;48.418;10.074;2022-10-22T02:15:56;23.50;71.20
1175;DHT22;576;48.418;10.074;2022-10-22T02:18:27;23.50;71.20
1175;DHT22;576;48.418;10.074;2022-10-22T02:20:57;23.50;71.20
1175;DHT22;576;48.418;10.074;2022-10-22T02:23:26;23.50;71.20
1175;DHT22;576;48.418;10.074;2022-10-22T02:26:00;23.50;71.20
1175;DHT22;576;48.418;10.074;2022-10-22T02:28:33;23.50;71.20
1175;DHT22;576;48.418;10.074;2022-10-22T02:31:09;23.50;71.20
1175;DHT22;576;48.418;10.074;2022-10-22T02:33:41;23.50;71.20
1175;DHT22;576;48.418;10.074;2022-10-22T02:36:12;23.50;71.20
1175;DHT22;576;48.418;10.074;2022-10-22T02:38:42;23.50;71.10
1175;DHT22;576;48.418;10.074;2022-10-22T02:41:10;23.50;71.10
1175;DHT22;576;48.418;10.074;2022-10-22T02:43:40;23.50;71.20
1175;DHT22;576;48.418;10.074;2022-10-22T02:46:10;23.40;71.10
1175;DHT22;576;48.418;10.074;2022-10-22T02:48:39;23.40;71.20
1175;DHT22;576;48.418;10.074;2022-10-22T02:51:07;23.40;71.20
1175;DHT22;576;48.418;10.074;2022-10-22T02:53:35;23.50;71.20
1175;DHT22;576;48.418;10.074;2022-10-22T02:56:03;23.40;71.10
1175;DHT22;576;48.418;10.074;2022-10-22T02:58:32;23.40;71.10
1175;DHT22;576;48.418;10.074;2022-10-22T03:01:00;23.40;71.10
1175;DHT22;576;48.418;10.074;2022-10-22T03:03:29;23.40;71.10
1175;DHT22;576;48.418;10.074;2022-10-22T03:05:57;23.40;71.10
1175;DHT22;576;48.418;10.074;2022-10-22T03:08:25;23.40;71.10
1175;DHT22;576;48.418;10.074;2022-10-22T03:10:54;23.40;71.00
1175;DHT22;576;48.418;10.074;2022-10-22T03:13:22;23.40;71.00
1175;DHT22;576;48.418;10.074;2022-10-22T03:15:50;23.40;71.00
1175;DHT22;576;48.418;10.074;2022-10-22T03:18:18;23.40;71.00
1175;DHT22;576;48.418;10.074;2022-10-22T03:20:47;23.40;71.00
1175;DHT22;576;48.418;10.074;2022-10-22T03:23:18;23.40;71.00
1175;DHT22;576;48.418;10.074;2022-10-22T03:25:47;23.40;71.10
1175;DHT22;576;48.418;10.074;2022-10-22T03:28:17;23.40;71.00
1175;DHT22;576;48.418;10.074;2022-10-22T03:30:45;23.40;71.10
1175;DHT22;576;48.418;10.074;2022-10-22T03:33:13;23.40;71.10
1175;DHT22;576;48.418;10.074;2022-10-22T03:35:43;23.30;71.10
1175;DHT22;576;48.418;10.074;2022-10-22T03:38:13;23.30;71.10
1175;DHT22;576;48.418;10.074;2022-10-22T03:40:43;23.30;71.00
1175;DHT22;576;48.418;10.074;2022-10-22T03:43:12;23.30;71.10
1175;DHT22;576;48.418;10.074;2022-10-22T03:45:41;23.40;71.10
1175;DHT22;576;48.418;10.074;2022-10-22T03:48:09;23.30;71.00
1175;DHT22;576;48.418;10.074;2022-10-22T03:50:37;23.30;71.00
1175;DHT22;576;48.418;10.074;2022-10-22T03:53:05;23.30;71.10
1175;DHT22;576;48.418;10.074;2022-10-22T03:55:39;23.30;71.10
1175;DHT22;576;48.418;10.074;2022-10-22T03:58:08;23.30;71.10
1175;DHT22;576;48.418;10.074;2022-10-22T04:00:36;23.30;71.10
1175;DHT22;576;48.418;10.074;2022-10-22T04:03:04;23.30;71.10
1175;DHT22;576;48.418;10.074;2022-10-22T04:05:32;23.30;71.00
1175;DHT22;576;48.418;10.074;2022-10-22T04:08:00;23.30;71.10
1175;DHT22;576;48.418;10.074;2022-10-22T04:10:28;23.30;71.10
1175;DHT22;576;48.418;10.074;2022-10-22T04:12:58;23.30;71.00
1175;DHT22;576;48.418;10.074;2022-10-22T04:15:26;23.30;71.00
1175;DHT22;576;48.418;10.074;2022-10-22T04:17:55;23.30;71.00
1175;DHT22;576;48.418;10.074;2022-10-22T04:20:23;23.30;70.90
1175;DHT22;576;48.418;10.074;2022-10-22T04:22:51;23.30;70.80
1175;DHT22;576;48.418;10.074;2022-10-22T04:25:19;23.30;70.80
1175;DHT22;576;48.418;10.074;2022-10-22T04:27:47;23.30;70.80
1175;DHT22;576;48.418;10.074;2022-10-22T04:30:16;23.30;70.90
1175;DHT22;576;48.418;10.074;2022-10-22T04:32:44;23.30;70.90
1175;DHT22;576;48.418;10.074;2022-10-22T04:35:13;23.30;70.90
1175;DHT22;576;48.418;10.074;2022-10-22T04:37:41;23.30;70.90
1175;DHT22;576;48.418;10.074;2022-10-22T04:40:10;23.30;70.90
1175;DHT22;576;48.418;10.074;2022-10-22T04:42:38;23.30;70.90
1175;DHT22;576;48.418;10.074;2022-10-22T04:45:08;23.30;70.90
1175;DHT22;576;48.418;10.074;2022-10-22T04:47:37;23.30;70.90
1175;DHT22;576;48.418;10.074;2022-10-22T04:50:07;23.30;70.80
1175;DHT22;576;48.418;10.074;2022-10-22T04:52:35;23.20;70.80
1175;DHT22;576;48.418;10.074;2022-10-22T04:55:03;23.20;70.80
1175;DHT22;576;48.418;10.074;2022-10-22T04:57:32;23.20;70.80
1175;DHT22;576;48.418;10.074;2022-10-22T05:00:00;23.20;70.80
1175;DHT22;576;48.418;10.074;2022-10-22T05:02:29;23.20;70.80
1175;DHT22;576;48.418;10.074;2022-10-22T05:04:58;23.20;70.70
1175;DHT22;576;48.418;10.074;2022-10-22T05:07:26;23.20;70.70
1175;DHT22;576;48.418;10.074;2022-10-22T05:09:54;23.20;70.80
1175;DHT22;576;48.418;10.074;2022-10-22T05:12:22;23.20;70.80
1175;DHT22;576;48.418;10.074;2022-10-22T05:14:51;23.20;70.80
1175;DHT22;576;48.418;10.074;2022-10-22T05:17:19;23.20;70.80
1175;DHT22;576;48.418;10.074;2022-10-22T05:19:47;23.20;70.80
1175;DHT22;576;48.418;10.074;2022-10-22T05:22:17;23.20;70.70
1175;DHT22;576;48.418;10.074;2022-10-22T05:24:45;23.20;70.80
1175;DHT22;576;48.418;10.074;2022-10-22T05:27:14;23.20;70.80
1175;DHT22;576;48.418;10.074;2022-10-22T05:29:47;23.20;70.80
1175;DHT22;576;48.418;10.074;2022-10-22T05:32:15;23.20;70.80
1175;DHT22;576;48.418;10.074;2022-10-22T05:34:44;23.20;70.80
1175;DHT22;576;48.418;10.074;2022-10-22T05:37:12;23.20;70.80
1175;DHT22;576;48.418;10.074;2022-10-22T05:39:41;23.20;70.80
1175;DHT22;576;48.418;10.074;2022-10-22T05:42:09;23.20;70.80
1175;DHT22;576;48.418;10.074;2022-10-22T05:44:37;23.20;70.80
1175;DHT22;576;48.418;10.074;2022-10-22T05:47:06;23.20;70.80
1175;DHT22;576;48.418;10.074;2022-10-22T05:49:35;23.20;70.90
1175;DHT22;576;48.418;10.074;2022-10-22T05:52:04;23.20;70.90
1175;DHT22;576;48.418;10.074;2022-10-22T05:54:32;23.20;70.90
1175;DHT22;576;48.418;10.074;2022-10-22T05:57:01;23.20;71.00
1175;DHT22;576;48.418;10.074;2022-10-22T05:59:29;23.20;71.10
1175;DHT22;576;48.418;10.074;2022-10-22T06:01:57;23.20;71.00
1175;DHT22;576;48.418;10.074;2022-10-22T06:04:25;23.20;71.00
1175;DHT22;576;48.418;10.074;2022-10-22T06:06:53;23.20;71.10
1175;DHT22;576;48.418;10.074;2022-10-22T06:09:27;23.20;71.00
1175;DHT22;576;48.418;10.074;2022-10-22T06:11:56;23.20;71.10
1175;DHT22;576;48.418;10.074;2022-10-22T06:14:27;23.20;71.00
1175;DHT22;576;48.418;10.074;2022-10-22T06:16:59;23.20;71.00
1175;DHT22;576;48.418;10.074;2022-10-22T06:19:27;23.20;71.10
1175;DHT22;576;48.418;10.074;2022-10-22T06:21:57;23.20;71.10
1175;DHT22;576;48.418;10.074;2022-10-22T06:24:25;23.20;71.10
1175;DHT22;576;48.418;10.074;2022-10-22T06:26:53;23.20;71.10
1175;DHT22;576;48.418;10.074;2022-10-22T06:29:21;23.20;71.10
1175;DHT22;576;48.418;10.074;2022-10-22T06:31:51;23.20;71.10
1175;DHT22;576;48.418;10.074;2022-10-22T06:34:19;23.20;71.10
1175;DHT22;576;48.418;10.074;2022-10-22T06:36:47;23.20;71.00
1175;DHT22;576;48.418;10.074;2022-10-22T06:39:17;23.20;71.00
1175;DHT22;576;48.418;10.074;2022-10-22T06:41:45;23.20;71.00
1175;DHT22;576;48.418;10.074;2022-10-22T06:44:17;23.20;71.00
1175;DHT22;576;48.418;10.074;2022-10-22T06:46:48;23.20;71.00
1175;DHT22;576;48.418;10.074;2022-10-22T06:49:19;23.20;71.00
1175;DHT22;576;48.418;10.074;2022-10-22T06:51:49;23.20;71.00
1175;DHT22;576;48.418;10.074;2022-10-22T06:54:17;23.20;71.00
1175;DHT22;576;48.418;10.074;2022-10-22T06:56:45;23.20;71.00
1175;DHT22;576;48.418;10.074;2022-10-22T06:59:13;23.20;71.00
1175;DHT22;576;48.418;10.074;2022-10-22T07:01:41;23.20;71.00
1175;DHT22;576;48.418;10.074;2022-10-22T07:04:10;23.20;71.00
1175;DHT22;576;48.418;10.074;2022-10-22T07:06:39;23.20;71.00
1175;DHT22;576;48.418;10.074;2022-10-22T07:09:07;23.20;71.00
1175;DHT22;576;48.418;10.074;2022-10-22T07:11:39;23.20;70.90
1175;DHT22;576;48.418;10.074;2022-10-22T07:14:07;23.20;71.00
1175;DHT22;576;48.418;10.074;2022-10-22T07:16:35;23.30;71.00
1175;DHT22;576;48.418;10.074;2022-10-22T07:19:04;23.20;70.90
1175;DHT22;576;48.418;10.074;2022-10-22T07:21:32;23.20;70.90
1175;DHT22;576;48.418;10.074;2022-10-22T07:24:02;23.30;70.90
1175;DHT22;576;48.418;10.074;2022-10-22T07:26:30;23.20;70.90
1175;DHT22;576;48.418;10.074;2022-10-22T07:28:59;23.30;70.90
1175;DHT22;576;48.418;10.074;2022-10-22T07:31:27;23.30;71.00
1175;DHT22;576;48.418;10.074;2022-10-22T07:33:55;23.20;71.20
1175;DHT22;576;48.418;10.074;2022-10-22T07:36:24;23.20;71.30
1175;DHT22;576;48.418;10.074;2022-10-22T07:38:56;23.30;71.40
1175;DHT22;576;48.418;10.074;2022-10-22T07:41:27;23.30;71.40
1175;DHT22;576;48.418;10.074;2022-10-22T07:43:56;23.30;71.30
1175;DHT22;576;48.418;10.074;2022-10-22T07:46:24;23.30;71.30
1175;DHT22;576;48.418;10.074;2022-10-22T07:48:53;23.30;71.30
1175;DHT22;576;48.418;10.074;2022-10-22T07:51:21;23.30;71.40
1175;DHT22;576;48.418;10.074;2022-10-22T07:53:49;23.30;71.30
1175;DHT22;576;48.418;10.074;2022-10-22T07:56:18;23.30;71.30
1175;DHT22;576;48.418;10.074;2022-10-22T07:58:47;23.30;71.30
1175;DHT22;576;48.418;10.074;2022-10-22T08:01:15;23.30;71.30
1175;DHT22;576;48.418;10.074;2022-10-22T08:03:43;23.30;71.30
1175;DHT22;576;48.418;10.074;2022-10-22T08:06:12;23.30;71.30
1175;DHT22;576;48.418;10.074;2022-10-22T08:08:41;23.30;71.20
1175;DHT22;576;48.418;10.074;2022-10-22T08:11:11;23.30;71.40
1175;DHT22;576;48.418;10.074;2022-10-22T08:13:39;23.30;71.30
1175;DHT22;576;48.418;10.074;2022-10-22T08:16:13;23.40;71.20
1175;DHT22;576;48.418;10.074;2022-10-22T08:18:41;23.40;71.30
1175;DHT22;576;48.418;10.074;2022-10-22T08:21:09;23.40;71.20
1175;DHT22;576;48.418;10.074;2022-10-22T08:23:37;23.30;71.30
1175;DHT22;576;48.418;10.074;2022-10-22T08:26:06;23.40;71.20
1175;DHT22;576;48.418;10.074;2022-10-22T08:28:34;23.40;71.20
1175;DHT22;576;48.418;10.074;2022-10-22T08:31:04;23.30;71.20
1175;DHT22;576;48.418;10.074;2022-10-22T08:33:34;23.30;71.20
1175;DHT22;576;48.418;10.074;2022-10-22T08:36:05;23.30;71.20
1175;DHT22;576;48.418;10.074;2022-10-22T08:38:33;23.40;71.20
1175;DHT22;576;48.418;10.074;2022-10-22T08:41:07;23.40;71.20
1175;DHT22;576;48.418;10.074;2022-10-22T08:44:09;23.40;71.10
1175;DHT22;576;48.418;10.074;2022-10-22T08:46:59;23.40;71.00
1175;DHT22;576;48.418;10.074;2022-10-22T08:49:36;23.40;71.00
1175;DHT22;576;48.418;10.074;2022-10-22T08:52:12;23.40;71.00
1175;DHT22;576;48.418;10.074;2022-10-22T08:54:48;23.40;71.00
1175;DHT22;576;48.418;10.074;2022-10-22T08:57:34;23.40;71.00
1175;DHT22;576;48.418;10.074;2022-10-22T09:00:10;23.40;70.90
1175;DHT22;576;48.418;10.074;2022-10-22T09:02:46;23.40;70.90
1175;DHT22;576;48.418;10.074;2022-10-22T09:05:30;23.50;70.80
1175;DHT22;576;48.418;10.074;2022-10-22T09:08:00;23.50;70.90
1175;DHT22;576;48.418;10.074;2022-10-22T09:10:31;23.50;70.90
1175;DHT22;576;48.418;10.074;2022-10-22T09:13:01;23.50;70.80
1175;DHT22;576;48.418;10.074;2022-10-22T09:15:29;23.50;70.80
1175;DHT22;576;48.418;10.074;2022-10-22T09:18:05;23.50;70.80
1175;DHT22;576;48.418;10.074;2022-10-22T09:20:46;23.50;70.80
1175;DHT22;576;48.418;10.074;2022-10-22T09:23:27;23.50;70.80
1175;DHT22;576;48.418;10.074;2022-10-22T09:25:59;23.50;70.70
1175;DHT22;576;48.418;10.074;2022-10-22T09:28:27;23.50;70.70
1175;DHT22;576;48.418;10.074;2022-10-22T09:30:55;23.60;70.70
1175;DHT22;576;48.418;10.074;2022-10-22T09:33:25;23.60;70.70
1175;DHT22;576;48.418;10.074;2022-10-22T09:35:57;23.60;70.90
1175;DHT22;576;48.418;10.074;2022-10-22T09:38:26;23.60;70.80
1175;DHT22;576;48.418;10.074;2022-10-22T09:40:57;23.60;70.80
1175;DHT22;576;48.418;10.074;2022-10-22T09:43:25;23.60;70.80
1175;DHT22;576;48.418;10.074;2022-10-22T09:45:58;23.60;70.80
1175;DHT22;576;48.418;10.074;2022-10-22T09:48:29;23.60;70.70
1175;DHT22;576;48.418;10.074;2022-10-22T09:51:05;23.60;70.70
1175;DHT22;576;48.418;10.074;2022-10-22T09:53:38;23.60;70.80
1175;DHT22;576;48.418;10.074;2022-10-22T09:56:17;23.60;70.90
1175;DHT22;576;48.418;10.074;2022-10-22T09:58:48;23.70;70.70
1175;DHT22;576;48.418;10.074;2022-10-22T10:01:19;23.70;70.90
1175;DHT22;576;48.418;10.074;2022-10-22T10:03:49;23.70;70.70
1175;DHT22;576;48.418;10.074;2022-10-22T10:06:20;23.70;70.70
1175;DHT22;576;48.418;10.074;2022-10-22T10:08:49;23.80;70.50
1175;DHT22;576;48.418;10.074;2022-10-22T10:14:01;23.80;70.20
1175;DHT22;576;48.418;10.074;2022-10-22T10:16:40;23.80;70.30
1175;DHT22;576;48.418;10.074;2022-10-22T10:19:25;23.80;70.30
1175;DHT22;576;48.418;10.074;2022-10-22T10:22:04;23.90;70.20
1175;DHT22;576;48.418;10.074;2022-10-22T10:24:47;23.90;70.10
1175;DHT22;576;48.418;10.074;2022-10-22T10:27:23;23.90;69.90
1175;DHT22;576;48.418;10.074;2022-10-22T10:29:58;23.90;69.90
1175;DHT22;576;48.418;10.074;2022-10-22T10:35:42;24.00;69.40
1175;DHT22;576;48.418;10.074;2022-10-22T10:38:33;24.10;69.00
1175;DHT22;576;48.418;10.074;2022-10-22T10:41:15;24.30;68.60
1175;DHT22;576;48.418;10.074;2022-10-22T10:43:54;24.30;68.30
1175;DHT22;576;48.418;10.074;2022-10-22T10:46:29;24.40;68.30
1175;DHT22;576;48.418;10.074;2022-10-22T10:49:08;24.40;68.20
1175;DHT22;576;48.418;10.074;2022-10-22T10:51:44;24.50;68.00
1175;DHT22;576;48.418;10.074;2022-10-22T10:54:27;24.50;67.80
1175;DHT22;576;48.418;10.074;2022-10-22T10:57:02;24.60;67.50
1175;DHT22;576;48.418;10.074;2022-10-22T10:59:44;24.60;67.50
1175;DHT22;576;48.418;10.074;2022-10-22T11:02:41;24.70;67.30
1175;DHT22;576;48.418;10.074;2022-10-22T11:05:27;24.90;66.80
1175;DHT22;576;48.418;10.074;2022-10-22T11:08:00;25.10;66.50
1175;DHT22;576;48.418;10.074;2022-10-22T11:10:34;25.20;66.10
1175;DHT22;576;48.418;10.074;2022-10-22T11:13:10;25.40;65.90
1175;DHT22;576;48.418;10.074;2022-10-22T11:15:40;25.50;65.50
1175;DHT22;576;48.418;10.074;2022-10-22T11:18:16;25.60;65.40
1175;DHT22;576;48.418;10.074;2022-10-22T11:20:52;25.60;65.40
1175;DHT22;576;48.418;10.074;2022-10-22T11:23:27;25.60;65.30
1175;DHT22;576;48.418;10.074;2022-10-22T11:25:58;25.50;65.50
1175;DHT22;576;48.418;10.074;2022-10-22T11:28:32;25.60;65.40
1175;DHT22;576;48.418;10.074;2022-10-22T11:31:03;25.60;65.40
1175;DHT22;576;48.418;10.074;2022-10-22T11:33:37;25.60;65.40
1175;DHT22;576;48.418;10.074;2022-10-22T11:36:07;25.60;65.30
1175;DHT22;576;48.418;10.074;2022-10-22T11:38:35;25.60;65.30
1175;DHT22;576;48.418;10.074;2022-10-22T11:41:08;25.70;65.30
1175;DHT22;576;48.418;10.074;2022-10-22T11:43:55;25.70;65.20
1175;DHT22;576;48.418;10.074;2022-10-22T11:46:39;25.70;65.30
1175;DHT22;576;48.418;10.074;2022-10-22T11:49:22;25.80;65.20
1175;DHT22;576;48.418;10.074;2022-10-22T11:51:51;25.80;65.20
1175;DHT22;576;48.418;10.074;2022-10-22T11:54:40;25.90;65.10
1175;DHT22;576;48.418;10.074;2022-10-22T11:57:26;25.90;65.10
1175;DHT22;576;48.418;10.074;2022-10-22T11:59:59;25.90;65.10
1175;DHT22;576;48.418;10.074;2022-10-22T12:02:37;25.90;65.10
1175;DHT22;576;48.418;10.074;2022-10-22T12:08:19;26.00;64.90
1175;DHT22;576;48.418;10.074;2022-10-22T12:10:57;26.10;64.90
1175;DHT22;576;48.418;10.074;2022-10-22T12:13:30;26.10;64.80
1175;DHT22;576;48.418;10.074;2022-10-22T12:16:02;26.10;64.70
1175;DHT22;576;48.418;10.074;2022-10-22T12:18:38;26.20;64.60
1175;DHT22;576;48.418;10.074;2022-10-22T12:21:11;26.20;64.50
1175;DHT22;576;48.418;10.074;2022-10-22T12:23:39;26.30;64.50
1175;DHT22;576;48.418;10.074;2022-10-22T12:26:22;26.20;64.50
1175;DHT22;576;48.418;10.074;2022-10-22T12:28:56;26.20;64.50
1175;DHT22;576;48.418;10.074;2022-10-22T12:31:24;26.30;64.50
1175;DHT22;576;48.418;10.074;2022-10-22T12:33:56;26.30;64.40
1175;DHT22;576;48.418;10.074;2022-10-22T12:36:26;26.40;64.30
1175;DHT22;576;48.418;10.074;2022-10-22T12:38:54;26.40;64.20
1175;DHT22;576;48.418;10.074;2022-10-22T12:41:29;26.40;64.20
1175;DHT22;576;48.418;10.074;2022-10-22T12:44:00;26.50;64.10
1175;DHT22;576;48.418;10.074;2022-10-22T12:46:31;26.50;64.00
1175;DHT22;576;48.418;10.074;2022-10-22T12:49:01;26.60;63.90
1175;DHT22;576;48.418;10.074;2022-10-22T12:51:30;26.60;63.80
1175;DHT22;576;48.418;10.074;2022-10-22T12:54:06;26.70;63.70
1175;DHT22;576;48.418;10.074;2022-10-22T12:56:35;26.60;63.70
1175;DHT22;576;48.418;10.074;2022-10-22T12:59:12;26.50;64.00
1175;DHT22;576;48.418;10.074;2022-10-22T13:01:43;26.40;64.10
1175;DHT22;576;48.418;10.074;2022-10-22T13:04:29;26.40;64.20
1175;DHT22;576;48.418;10.074;2022-10-22T13:07:17;26.30;64.30
1175;DHT22;576;48.418;10.074;2022-10-22T13:09:57;26.30;64.40
1175;DHT22;576;48.418;10.074;2022-10-22T13:12:27;26.30;64.30
1175;DHT22;576;48.418;10.074;2022-10-22T13:14:56;26.10;64.70
1175;DHT22;576;48.418;10.074;2022-10-22T13:17:46;26.10;64.80
1175;DHT22;576;48.418;10.074;2022-10-22T13:20:19;26.10;64.90
1175;DHT22;576;48.418;10.074;2022-10-22T13:22:55;26.00;65.00
1175;DHT22;576;48.418;10.074;2022-10-22T13:25:27;26.00;65.10
1175;DHT22;576;48.418;10.074;2022-10-22T13:27:58;26.00;65.20
1175;DHT22;576;48.418;10.074;2022-10-22T13:30:29;26.00;65.20
1175;DHT22;576;48.418;10.074;2022-10-22T13:33:00;25.90;65.20
1175;DHT22;576;48.418;10.074;2022-10-22T13:35:31;25.90;65.30
1175;DHT22;576;48.418;10.074;2022-10-22T13:38:01;25.90;65.40
1175;DHT22;576;48.418;10.074;2022-10-22T13:40:29;25.90;65.40
1175;DHT22;576;48.418;10.074;2022-10-22T13:42:57;25.90;65.40
1175;DHT22;576;48.418;10.074;2022-10-22T13:45:25;25.90;65.50
1175;DHT22;576;48.418;10.074;2022-10-22T13:47:54;25.90;65.50
1175;DHT22;576;48.418;10.074;2022-10-22T13:50:24;25.90;65.40
1175;DHT22;576;48.418;10.074;2022-10-22T13:52:54;25.90;65.40
1175;DHT22;576;48.418;10.074;2022-10-22T13:55:24;25.90;65.30
1175;DHT22;576;48.418;10.074;2022-10-22T13:57:55;25.80;65.40
1175;DHT22;576;48.418;10.074;2022-10-22T14:00:23;25.80;65.40
1175;DHT22;576;48.418;10.074;2022-10-22T14:02:53;25.80;65.40
1175;DHT22;576;48.418;10.074;2022-10-22T14:05:25;25.80;65.30
1175;DHT22;576;48.418;10.074;2022-10-22T14:07:53;25.70;65.30
1175;DHT22;576;48.418;10.074;2022-10-22T14:10:24;25.70;65.50
1175;DHT22;576;48.418;10.074;2022-10-22T14:12:52;25.70;65.40
1175;DHT22;576;48.418;10.074;2022-10-22T14:15:22;25.70;65.50
1175;DHT22;576;48.418;10.074;2022-10-22T14:17:57;25.70;65.40
1175;DHT22;576;48.418;10.074;2022-10-22T14:20:29;25.70;65.50
1175;DHT22;576;48.418;10.074;2022-10-22T14:23:03;25.70;65.60
1175;DHT22;576;48.418;10.074;2022-10-22T14:25:32;25.70;65.60
1175;DHT22;576;48.418;10.074;2022-10-22T14:28:00;25.70;65.60
1175;DHT22;576;48.418;10.074;2022-10-22T14:30:28;25.60;65.70
1175;DHT22;576;48.418;10.074;2022-10-22T14:32:58;25.60;65.70
1175;DHT22;576;48.418;10.074;2022-10-22T14:35:28;25.60;65.70
1175;DHT22;576;48.418;10.074;2022-10-22T14:37:56;25.60;65.70
1175;DHT22;576;48.418;10.074;2022-10-22T14:40:24;25.60;65.80
1175;DHT22;576;48.418;10.074;2022-10-22T14:42:52;25.60;65.70
1175;DHT22;576;48.418;10.074;2022-10-22T14:45:22;25.60;65.70
1175;DHT22;576;48.418;10.074;2022-10-22T14:47:52;25.60;65.80
1175;DHT22;576;48.418;10.074;2022-10-22T14:50:22;25.60;65.80
1175;DHT22;576;48.418;10.074;2022-10-22T14:52:51;25.60;65.80
1175;DHT22;576;48.418;10.074;2022-10-22T14:55:19;25.60;65.80
1175;DHT22;576;48.418;10.074;2022-10-22T14:57:48;25.50;65.80
1175;DHT22;576;48.418;10.074;2022-10-22T15:00:17;25.50;65.80
1175;DHT22;576;48.418;10.074;2022-10-22T15:02:46;25.60;65.80
1175;DHT22;576;48.418;10.074;2022-10-22T15:05:15;25.50;65.90
1175;DHT22;576;48.418;10.074;2022-10-22T15:07:44;25.50;65.80
1175;DHT22;576;48.418;10.074;2022-10-22T15:10:13;25.50;65.90
1175;DHT22;576;48.418;10.074;2022-10-22T15:12:41;25.50;65.90
1175;DHT22;576;48.418;10.074;2022-10-22T15:15:10;25.50;65.90
1175;DHT22;576;48.418;10.074;2022-10-22T15:17:38;25.50;65.90
1175;DHT22;576;48.418;10.074;2022-10-22T15:20:07;25.50;65.90
1175;DHT22;576;48.418;10.074;2022-10-22T15:22:35;25.40;66.00
1175;DHT22;576;48.418;10.074;2022-10-22T15:25:05;25.40;66.00
1175;DHT22;576;48.418;10.074;2022-10-22T15:27:35;25.30;66.10
1175;DHT22;576;48.418;10.074;2022-10-22T15:30:04;25.30;66.10
1175;DHT22;576;48.418;10.074;2022-10-22T15:32:33;25.20;66.20
1175;DHT22;576;48.418;10.074;2022-10-22T15:35:01;25.20;66.40
1175;DHT22;576;48.418;10.074;2022-10-22T15:37:31;25.10;66.40
1175;DHT22;576;48.418;10.074;2022-10-22T15:39:59;25.10;66.50
1175;DHT22;576;48.418;10.074;2022-10-22T15:42:29;25.00;66.60
1175;DHT22;576;48.418;10.074;2022-10-22T15:44:59;25.00;66.70
1175;DHT22;576;48.418;10.074;2022-10-22T15:47:28;25.00;66.60
1175;DHT22;576;48.418;10.074;2022-10-22T15:49:57;25.00;66.70
1175;DHT22;576;48.418;10.074;2022-10-22T15:52:25;25.00;66.80
1175;DHT22;576;48.418;10.074;2022-10-22T15:54:53;24.90;66.80
1175;DHT22;576;48.418;10.074;2022-10-22T15:57:21;24.90;66.90
1175;DHT22;576;48.418;10.074;2022-10-22T15:59:49;24.90;66.90
1175;DHT22;576;48.418;10.074;2022-10-22T16:02:19;24.90;66.90
1175;DHT22;576;48.418;10.074;2022-10-22T16:04:47;24.90;67.00
1175;DHT22;576;48.418;10.074;2022-10-22T16:07:15;24.90;67.00
1175;DHT22;576;48.418;10.074;2022-10-22T16:09:48;24.90;66.90
1175;DHT22;576;48.418;10.074;2022-10-22T16:12:16;25.00;66.80
1175;DHT22;576;48.418;10.074;2022-10-22T16:14:44;25.00;66.70
1175;DHT22;576;48.418;10.074;2022-10-22T16:17:12;25.10;66.50
1175;DHT22;576;48.418;10.074;2022-10-22T16:19:42;25.10;66.40
1175;DHT22;576;48.418;10.074;2022-10-22T16:22:10;25.10;66.30
1175;DHT22;576;48.418;10.074;2022-10-22T16:24:39;25.20;66.20
1175;DHT22;576;48.418;10.074;2022-10-22T16:27:08;25.20;66.10
1175;DHT22;576;48.418;10.074;2022-10-22T16:29:37;25.20;66.10
1175;DHT22;576;48.418;10.074;2022-10-22T16:32:05;25.20;66.10
1175;DHT22;576;48.418;10.074;2022-10-22T16:34:34;25.20;66.20
1175;DHT22;576;48.418;10.074;2022-10-22T16:37:03;25.10;66.20